createdAt,value
2018-09-15T00:01:22.633Z,10.90
2018-09-15T00:03:51.129Z,10.80
2018-09-15T00:06:19.659Z,10.70
2018-09-15T00:08:48.200Z,10.70
2018-09-15T00:11:16.698Z,10.70
2018-09-15T00:13:45.280Z,10.80
2018-09-15T00:16:13.870Z,10.80
2018-09-15T00:18:42.417Z,10.80
2018-09-15T00:21:11.020Z,10.80
2018-09-15T00:23:39.541Z,10.90
2018-09-15T00:26:08.102Z,10.80
2018-09-15T00:28:36.644Z,10.80
2018-09-15T00:31:05.174Z,10.80
2018-09-15T00:33:33.721Z,10.80
2018-09-15T00:36:02.268Z,10.90
2018-09-15T00:38:30.754Z,10.90
2018-09-15T00:40:59.308Z,10.90
2018-09-15T00:43:27.811Z,10.80
2018-09-15T00:45:56.389Z,10.80
2018-09-15T00:48:24.900Z,10.70
2018-09-15T00:50:53.443Z,10.60
2018-09-15T00:53:21.957Z,10.60
2018-09-15T00:55:50.493Z,10.50
2018-09-15T00:58:18.988Z,10.50
2018-09-15T01:00:47.513Z,10.40
2018-09-15T01:03:16.025Z,10.30
2018-09-15T01:05:44.589Z,10.20
2018-09-15T01:08:13.188Z,10.20
2018-09-15T01:10:41.740Z,10.10
2018-09-15T01:13:10.250Z,10.10
2018-09-15T01:15:38.800Z,10.00
2018-09-15T01:18:07.300Z,10.00
2018-09-15T01:20:35.845Z,10.00
2018-09-15T01:23:04.360Z,10.10
2018-09-15T01:25:32.931Z,10.10
2018-09-15T01:28:01.502Z,10.10
2018-09-15T01:30:30.030Z,10.10
2018-09-15T01:32:58.581Z,10.20
2018-09-15T01:35:27.137Z,10.20
2018-09-15T01:37:55.690Z,10.20
2018-09-15T01:40:24.232Z,10.20
2018-09-15T01:42:52.756Z,10.20
2018-09-15T01:45:21.294Z,10.20
2018-09-15T01:47:49.826Z,10.20
2018-09-15T01:50:18.373Z,10.20
2018-09-15T01:52:46.907Z,10.20
2018-09-15T01:55:15.388Z,10.20
2018-09-15T01:57:43.913Z,10.20
2018-09-15T02:00:12.449Z,10.20
2018-09-15T02:02:41.026Z,10.20
2018-09-15T02:05:09.517Z,10.10
2018-09-15T02:07:38.066Z,10.10
2018-09-15T02:10:06.650Z,10.00
2018-09-15T02:12:35.177Z,10.00
2018-09-15T02:15:03.808Z,10.00
2018-09-15T02:17:32.360Z,10.00
2018-09-15T02:20:00.917Z,10.10
2018-09-15T02:22:29.536Z,10.20
2018-09-15T02:24:58.060Z,10.30
2018-09-15T02:27:26.565Z,10.40
2018-09-15T02:29:55.101Z,10.50
2018-09-15T02:32:23.632Z,10.50
2018-09-15T02:34:52.206Z,10.50
2018-09-15T02:37:20.753Z,10.50
2018-09-15T02:39:49.250Z,10.60
2018-09-15T02:42:17.786Z,10.70
2018-09-15T02:44:46.317Z,10.80
2018-09-15T02:47:14.804Z,10.90
2018-09-15T02:49:43.324Z,11.00
2018-09-15T02:52:11.857Z,11.10
2018-09-15T02:54:40.395Z,11.10
2018-09-15T02:57:08.932Z,11.10
2018-09-15T02:59:37.429Z,11.20
2018-09-15T03:02:05.981Z,11.20
2018-09-15T03:04:34.504Z,11.20
2018-09-15T03:07:03.053Z,11.30
2018-09-15T03:09:31.599Z,11.40
2018-09-15T03:12:00.135Z,11.40
2018-09-15T03:14:28.701Z,11.50
2018-09-15T03:16:57.206Z,11.50
2018-09-15T03:19:25.793Z,11.60
2018-09-15T03:21:54.277Z,11.60
2018-09-15T03:24:22.818Z,11.70
2018-09-15T03:26:51.380Z,11.70
2018-09-15T03:29:19.920Z,11.80
2018-09-15T03:31:48.414Z,11.80
2018-09-15T03:34:17.020Z,11.80
2018-09-15T03:36:45.553Z,11.90
2018-09-15T03:39:14.132Z,11.90
2018-09-15T03:41:43.052Z,12.00
2018-09-15T03:44:11.777Z,12.00
2018-09-15T03:46:40.535Z,12.00
2018-09-15T03:49:09.067Z,12.00
2018-09-15T03:51:37.653Z,12.00
2018-09-15T03:54:06.379Z,12.10
2018-09-15T03:56:34.890Z,12.10
2018-09-15T03:59:03.442Z,12.10
2018-09-15T04:01:31.925Z,12.10
2018-09-15T04:04:00.468Z,12.10
2018-09-15T04:06:28.975Z,12.00
2018-09-15T04:08:57.550Z,12.00
2018-09-15T04:11:26.096Z,11.90
2018-09-15T04:13:54.580Z,11.90
2018-09-15T04:16:23.153Z,11.80
2018-09-15T04:18:51.651Z,11.80
2018-09-15T04:21:20.192Z,11.70
2018-09-15T04:23:48.693Z,11.70
2018-09-15T04:26:17.217Z,11.60
2018-09-15T04:28:45.741Z,11.60
2018-09-15T04:31:14.293Z,11.50
2018-09-15T04:33:42.983Z,11.40
2018-09-15T04:36:11.577Z,11.40
2018-09-15T04:38:40.230Z,11.30
2018-09-15T04:41:08.873Z,11.30
2018-09-15T04:43:37.479Z,11.30
2018-09-15T04:46:06.261Z,11.30
2018-09-15T04:48:34.838Z,11.30
2018-09-15T04:51:03.397Z,11.30
2018-09-15T04:53:31.932Z,11.40
2018-09-15T04:56:00.482Z,11.40
2018-09-15T04:58:29.012Z,11.40
2018-09-15T05:00:57.560Z,11.50
2018-09-15T05:03:26.119Z,11.50
2018-09-15T05:05:54.604Z,11.50
2018-09-15T05:08:23.147Z,11.50
2018-09-15T05:10:51.648Z,11.50
2018-09-15T05:13:20.187Z,11.60
2018-09-15T05:15:48.773Z,11.60
2018-09-15T05:18:17.313Z,11.60
2018-09-15T05:20:45.844Z,11.60
2018-09-15T05:23:14.360Z,11.60
2018-09-15T05:25:42.905Z,11.60
2018-09-15T05:28:11.397Z,11.60
2018-09-15T05:30:39.970Z,11.60
2018-09-15T05:33:08.504Z,11.60
2018-09-15T05:35:37.053Z,11.70
2018-09-15T05:38:05.658Z,11.70
2018-09-15T05:40:34.197Z,11.70
2018-09-15T05:43:02.715Z,11.70
2018-09-15T05:45:31.214Z,11.60
2018-09-15T05:47:59.736Z,11.60
2018-09-15T05:50:28.222Z,11.60
2018-09-15T05:52:56.753Z,11.60
2018-09-15T05:55:25.301Z,11.70
2018-09-15T05:57:53.833Z,11.80
2018-09-15T06:00:22.464Z,11.80
2018-09-15T06:02:50.983Z,11.90
2018-09-15T06:05:19.525Z,12.00
2018-09-15T06:07:48.101Z,12.00
2018-09-15T06:10:16.621Z,12.10
2018-09-15T06:12:45.101Z,12.20
2018-09-15T06:15:13.664Z,12.20
2018-09-15T06:17:42.193Z,12.30
2018-09-15T06:20:10.708Z,12.50
2018-09-15T06:22:39.231Z,12.50
2018-09-15T06:25:07.794Z,12.60
2018-09-15T06:27:36.305Z,12.60
2018-09-15T06:30:05.484Z,12.60
2018-09-15T06:32:34.022Z,12.70
2018-09-15T06:35:02.585Z,12.70
2018-09-15T06:37:31.071Z,12.80
2018-09-15T06:39:59.632Z,12.90
2018-09-15T06:42:28.186Z,13.00
2018-09-15T06:44:56.737Z,13.10
2018-09-15T06:47:25.476Z,13.20
2018-09-15T06:49:54.014Z,13.30
2018-09-15T06:52:22.541Z,13.40
2018-09-15T06:54:51.030Z,13.40
2018-09-15T06:57:19.589Z,13.40
2018-09-15T06:59:48.074Z,13.40
2018-09-15T07:02:16.596Z,13.40
2018-09-15T07:04:45.094Z,13.40
2018-09-15T07:07:13.632Z,13.50
2018-09-15T07:09:42.141Z,13.50
2018-09-15T07:12:10.661Z,13.60
2018-09-15T07:14:39.191Z,13.70
2018-09-15T07:17:07.734Z,13.90
2018-09-15T07:19:36.292Z,13.90
2018-09-15T07:22:04.813Z,14.00
2018-09-15T07:24:33.358Z,14.10
2018-09-15T07:27:01.891Z,14.20
2018-09-15T07:29:30.417Z,14.20
2018-09-15T07:31:59.119Z,14.30
2018-09-15T07:34:27.677Z,14.40
2018-09-15T07:36:56.276Z,14.50
2018-09-15T07:39:24.819Z,14.60
2018-09-15T07:41:53.377Z,14.70
2018-09-15T07:44:21.864Z,14.60
2018-09-15T07:46:50.429Z,14.60
2018-09-15T07:49:18.978Z,14.70
2018-09-15T07:51:47.672Z,14.70
2018-09-15T07:54:16.214Z,14.70
2018-09-15T07:56:44.868Z,14.70
2018-09-15T07:59:13.405Z,14.70
2018-09-15T08:01:41.917Z,14.80
2018-09-15T08:04:10.494Z,14.80
2018-09-15T08:06:39.005Z,14.70
2018-09-15T08:09:07.894Z,14.60
2018-09-15T08:11:36.534Z,14.60
2018-09-15T08:14:05.119Z,14.70
2018-09-15T08:16:33.686Z,14.80
2018-09-15T08:19:02.239Z,14.80
2018-09-15T08:21:30.878Z,14.90
2018-09-15T08:23:59.427Z,15.10
2018-09-15T08:26:28.000Z,15.30
2018-09-15T08:28:56.506Z,15.50
2018-09-15T08:31:25.065Z,15.50
2018-09-15T08:33:53.610Z,15.60
2018-09-15T08:36:22.203Z,15.60
2018-09-15T08:38:50.739Z,15.80
2018-09-15T08:41:19.315Z,15.90
2018-09-15T08:43:48.298Z,16.10
2018-09-15T08:46:16.866Z,16.40
2018-09-15T08:48:45.357Z,16.50
2018-09-15T08:51:13.869Z,16.50
2018-09-15T08:53:42.470Z,16.60
2018-09-15T08:56:11.049Z,16.60
2018-09-15T08:58:39.580Z,16.70
2018-09-15T09:01:08.119Z,16.80
2018-09-15T09:03:36.675Z,16.80
2018-09-15T09:06:05.242Z,17.00
2018-09-15T09:08:33.777Z,17.20
2018-09-15T09:11:02.295Z,17.40
2018-09-15T09:13:30.820Z,17.40
2018-09-15T09:15:59.340Z,17.30
2018-09-15T09:18:28.034Z,17.20
2018-09-15T09:20:56.545Z,17.10
2018-09-15T09:23:25.061Z,17.00
2018-09-15T09:25:53.577Z,17.00
2018-09-15T09:28:22.117Z,17.10
2018-09-15T09:30:50.648Z,17.20
2018-09-15T09:33:19.207Z,17.50
2018-09-15T09:35:47.717Z,17.70
2018-09-15T09:38:16.274Z,17.90
2018-09-15T09:40:44.814Z,17.90
2018-09-15T09:43:13.342Z,17.80
2018-09-15T09:45:41.877Z,17.70
2018-09-15T09:48:10.393Z,17.60
2018-09-15T09:50:38.961Z,17.50
2018-09-15T09:53:07.555Z,17.80
2018-09-15T09:55:36.069Z,18.10
2018-09-15T09:58:04.636Z,18.60
2018-09-15T10:00:38.719Z,18.90
2018-09-15T10:03:07.353Z,18.70
2018-09-15T10:05:35.887Z,18.30
2018-09-15T10:08:04.471Z,18.10
2018-09-15T10:10:32.957Z,18.20
2018-09-15T10:13:01.534Z,18.20
2018-09-15T10:15:30.199Z,18.20
2018-09-15T10:17:58.685Z,18.00
2018-09-15T10:20:27.367Z,18.00
2018-09-15T10:22:55.991Z,18.00
2018-09-15T10:25:24.696Z,17.90
2018-09-15T10:27:53.225Z,17.80
2018-09-15T10:30:21.830Z,17.80
2018-09-15T10:32:50.348Z,17.80
2018-09-15T10:35:18.979Z,17.80
2018-09-15T10:37:47.554Z,17.70
2018-09-15T10:40:16.193Z,17.60
2018-09-15T10:42:44.704Z,17.60
2018-09-15T10:45:13.272Z,17.50
2018-09-15T10:47:42.049Z,17.50
2018-09-15T10:50:10.696Z,17.50
2018-09-15T10:52:39.270Z,17.60
2018-09-15T10:55:07.811Z,17.80
2018-09-15T10:57:36.528Z,17.70
2018-09-15T11:00:06.589Z,17.60
2018-09-15T11:02:35.261Z,17.40
2018-09-15T11:05:04.222Z,17.30
2018-09-15T11:07:33.144Z,17.30
2018-09-15T11:10:01.669Z,17.40
2018-09-15T11:12:32.455Z,17.50
2018-09-15T11:15:01.245Z,17.60
2018-09-15T11:17:29.905Z,17.50
2018-09-15T11:19:59.001Z,17.50
2018-09-15T11:22:27.531Z,17.60
2018-09-15T11:24:56.089Z,17.80
2018-09-15T11:27:24.660Z,18.00
2018-09-15T11:29:53.392Z,18.40
2018-09-15T11:32:22.208Z,18.70
2018-09-15T11:34:50.924Z,18.90
2018-09-15T11:37:19.454Z,19.10
2018-09-15T11:39:48.019Z,19.20
2018-09-15T11:42:16.684Z,19.20
2018-09-15T11:44:45.358Z,19.10
2018-09-15T11:47:13.968Z,18.80
2018-09-15T11:49:42.505Z,18.70
2018-09-15T11:52:11.074Z,18.50
2018-09-15T11:54:39.641Z,18.30
2018-09-15T11:57:08.204Z,18.10
2018-09-15T11:59:36.895Z,17.90
2018-09-15T12:02:05.628Z,17.80
2018-09-15T12:04:34.166Z,17.80
2018-09-15T12:07:02.797Z,17.80
2018-09-15T12:09:31.401Z,17.70
2018-09-15T12:11:59.985Z,17.60
2018-09-15T12:14:28.564Z,17.50
2018-09-15T12:16:57.168Z,17.50
2018-09-15T12:19:26.631Z,17.40
2018-09-15T12:21:55.176Z,17.50
2018-09-15T12:24:23.751Z,17.60
2018-09-15T12:26:52.261Z,17.70
2018-09-15T12:29:20.839Z,17.80
2018-09-15T12:31:49.406Z,17.90
2018-09-15T12:34:17.952Z,18.00
2018-09-15T12:36:46.508Z,18.10
2018-09-15T12:39:15.077Z,18.10
2018-09-15T12:41:43.656Z,18.10
2018-09-15T12:44:12.226Z,18.10
2018-09-15T12:46:40.793Z,18.30
2018-09-15T12:49:09.357Z,18.60
2018-09-15T12:51:38.083Z,18.70
2018-09-15T12:54:07.246Z,18.80
2018-09-15T12:56:35.912Z,18.80
2018-09-15T12:59:04.506Z,18.90
2018-09-15T13:01:33.109Z,18.90
2018-09-15T13:04:01.840Z,18.80
2018-09-15T13:06:30.553Z,18.80
2018-09-15T13:08:59.409Z,18.70
2018-09-15T13:11:28.169Z,18.60
2018-09-15T13:13:56.711Z,18.40
2018-09-15T13:16:25.225Z,18.30
2018-09-15T13:18:53.814Z,18.10
2018-09-15T13:21:22.367Z,18.00
2018-09-15T13:23:51.027Z,17.90
2018-09-15T13:26:19.502Z,17.90
2018-09-15T13:28:48.250Z,18.00
2018-09-15T13:31:16.809Z,18.20
2018-09-15T13:33:45.373Z,18.40
2018-09-15T13:36:13.890Z,18.60
2018-09-15T13:38:42.519Z,18.80
2018-09-15T13:41:11.072Z,19.00
2018-09-15T13:43:39.698Z,19.00
2018-09-15T13:46:08.242Z,19.00
2018-09-15T13:48:36.787Z,18.90
2018-09-15T13:51:05.710Z,18.70
2018-09-15T13:53:34.342Z,18.60
2018-09-15T13:56:02.910Z,18.50
2018-09-15T13:58:31.558Z,18.40
2018-09-15T14:01:00.167Z,18.50
2018-09-15T14:03:28.781Z,18.60
2018-09-15T14:05:57.761Z,18.70
2018-09-15T14:08:26.320Z,18.80
2018-09-15T14:10:54.944Z,19.00
2018-09-15T14:13:23.476Z,19.00
2018-09-15T14:15:52.043Z,19.00
2018-09-15T14:18:20.774Z,18.80
2018-09-15T14:20:49.433Z,18.70
2018-09-15T14:23:18.081Z,18.60
2018-09-15T14:25:46.665Z,18.50
2018-09-15T14:28:15.338Z,18.40
2018-09-15T14:30:44.001Z,18.20
2018-09-15T14:33:12.825Z,18.10
2018-09-15T14:35:41.745Z,18.00
2018-09-15T14:38:10.342Z,17.90
2018-09-15T14:40:38.907Z,17.50
2018-09-15T14:43:07.520Z,17.10
2018-09-15T14:45:36.120Z,16.60
2018-09-15T14:48:04.772Z,16.30
2018-09-15T14:50:33.487Z,16.00
2018-09-15T14:53:02.387Z,15.70
2018-09-15T14:55:31.009Z,15.60
2018-09-15T14:57:59.558Z,15.60
2018-09-15T15:00:28.066Z,15.60
2018-09-15T15:03:00.423Z,15.70
2018-09-15T15:05:28.968Z,15.80
2018-09-15T15:07:57.661Z,15.90
2018-09-15T15:10:26.125Z,16.00
2018-09-15T15:12:54.697Z,16.20
2018-09-15T15:15:23.395Z,16.30
2018-09-15T15:17:51.885Z,16.50
2018-09-15T15:20:21.130Z,16.60
2018-09-15T15:22:49.686Z,16.80
2018-09-15T15:25:18.491Z,16.80
2018-09-15T15:27:47.057Z,16.80
2018-09-15T15:30:16.484Z,16.60
2018-09-15T15:32:45.038Z,16.50
2018-09-15T15:35:13.581Z,16.60
2018-09-15T15:37:42.199Z,16.60
2018-09-15T15:40:10.765Z,16.90
2018-09-15T15:42:39.270Z,17.40
2018-09-15T15:45:07.921Z,17.70
2018-09-15T15:47:36.479Z,18.00
2018-09-15T15:50:05.117Z,18.10
2018-09-15T15:52:33.721Z,18.20
2018-09-15T15:55:02.805Z,18.10
2018-09-15T15:57:38.024Z,18.10
2018-09-15T16:00:06.828Z,18.10
2018-09-15T16:02:35.640Z,18.10
2018-09-15T16:05:04.429Z,18.10
2018-09-15T16:07:33.005Z,18.00
2018-09-15T16:10:01.567Z,17.90
2018-09-15T16:12:30.124Z,17.70
2018-09-15T16:14:58.730Z,17.50
2018-09-15T16:17:27.305Z,17.30
2018-09-15T16:19:55.901Z,17.20
2018-09-15T16:22:24.405Z,17.00
2018-09-15T16:24:52.962Z,16.90
2018-09-15T16:27:21.502Z,16.80
2018-09-15T16:29:50.074Z,16.70
2018-09-15T16:32:18.650Z,16.70
2018-09-15T16:34:53.748Z,16.70
2018-09-15T16:37:22.459Z,16.80
2018-09-15T16:39:51.070Z,16.90
2018-09-15T16:42:19.668Z,17.00
2018-09-15T16:44:48.259Z,17.00
2018-09-15T16:47:16.843Z,17.00
2018-09-15T16:49:45.345Z,17.00
2018-09-15T16:52:13.933Z,16.90
2018-09-15T16:54:42.491Z,16.90
2018-09-15T16:57:11.037Z,16.90
2018-09-15T16:59:39.561Z,16.80
2018-09-15T17:02:08.149Z,16.70
2018-09-15T17:04:36.668Z,16.60
2018-09-15T17:07:05.266Z,16.40
2018-09-15T17:09:33.908Z,16.30
2018-09-15T17:12:02.497Z,16.20
2018-09-15T17:14:31.024Z,16.10
2018-09-15T17:16:59.562Z,15.90
2018-09-15T17:19:28.466Z,15.80
2018-09-15T17:21:56.998Z,15.70
2018-09-15T17:24:25.568Z,15.50
2018-09-15T17:26:54.104Z,15.40
2018-09-15T17:29:22.645Z,15.30
2018-09-15T17:31:51.241Z,15.20
2018-09-15T17:34:19.792Z,15.10
2018-09-15T17:36:48.345Z,15.00
2018-09-15T17:39:16.887Z,14.80
2018-09-15T17:41:45.497Z,14.70
2018-09-15T17:44:14.010Z,14.60
2018-09-15T17:46:42.573Z,14.40
2018-09-15T17:49:11.182Z,14.30
2018-09-15T17:51:39.708Z,14.20
2018-09-15T17:54:08.287Z,14.00
2018-09-15T17:56:36.841Z,14.00
2018-09-15T17:59:05.405Z,13.90
2018-09-15T18:01:33.997Z,13.80
2018-09-15T18:04:02.886Z,13.70
2018-09-15T18:06:31.442Z,13.70
2018-09-15T18:09:00.013Z,13.70
2018-09-15T18:11:28.578Z,13.60
2018-09-15T18:14:10.538Z,13.50
2018-09-15T18:16:48.554Z,13.50
2018-09-15T18:19:17.338Z,13.50
2018-09-15T18:21:54.346Z,13.40
2018-09-15T18:24:23.268Z,13.50
2018-09-15T18:26:51.809Z,13.40
2018-09-15T18:29:20.414Z,13.30
2018-09-15T18:31:48.937Z,13.30
2018-09-15T18:34:17.468Z,13.30
2018-09-15T18:36:46.183Z,13.20
2018-09-15T18:39:14.641Z,13.10
2018-09-15T18:41:43.169Z,13.00
2018-09-15T18:44:11.729Z,12.90
2018-09-15T18:46:40.274Z,12.90
2018-09-15T18:49:08.863Z,12.80
2018-09-15T18:51:37.445Z,12.70
2018-09-15T18:54:06.085Z,12.70
2018-09-15T18:56:34.730Z,12.60
2018-09-15T18:59:03.293Z,12.50
2018-09-15T19:01:31.857Z,12.40
2018-09-15T19:04:00.365Z,12.30
2018-09-15T19:06:28.968Z,12.20
2018-09-15T19:08:57.525Z,12.20
2018-09-15T19:11:26.036Z,12.10
2018-09-15T19:13:54.620Z,12.00
2018-09-15T19:16:23.346Z,11.90
2018-09-15T19:18:51.933Z,11.90
2018-09-15T19:21:20.731Z,11.80
2018-09-15T19:23:49.303Z,11.70
2018-09-15T19:26:17.851Z,11.70
2018-09-15T19:28:46.434Z,11.60
2018-09-15T19:31:14.983Z,11.60
2018-09-15T19:33:43.578Z,11.60
2018-09-15T19:36:12.274Z,11.60
2018-09-15T19:38:40.893Z,11.60
2018-09-15T19:41:09.632Z,11.60
2018-09-15T19:43:38.201Z,11.60
2018-09-15T19:46:07.190Z,11.50
2018-09-15T19:48:35.741Z,11.50
2018-09-15T19:51:05.180Z,11.40
2018-09-15T19:53:33.798Z,11.40
2018-09-15T19:56:02.306Z,11.40
2018-09-15T19:58:30.816Z,11.40
2018-09-15T20:00:59.456Z,11.30
2018-09-15T20:03:28.045Z,11.30
2018-09-15T20:05:56.733Z,11.20
2018-09-15T20:08:25.330Z,11.10
2018-09-15T20:10:53.892Z,11.10
2018-09-15T20:13:22.458Z,11.00
2018-09-15T20:15:49.845Z,11.00
2018-09-15T20:18:17.292Z,11.00
2018-09-15T20:20:44.754Z,10.90
2018-09-15T20:23:13.327Z,10.90
2018-09-15T20:25:41.900Z,11.00
2018-09-15T20:28:10.424Z,11.10
2018-09-15T20:30:38.992Z,11.20
2018-09-15T20:33:07.626Z,11.30
2018-09-15T20:35:36.133Z,11.20
2018-09-15T20:38:04.769Z,11.10
2018-09-15T20:40:33.315Z,11.00
2018-09-15T20:43:01.867Z,10.90
2018-09-15T20:45:30.438Z,10.80
2018-09-15T20:47:58.997Z,10.70
2018-09-15T20:50:27.521Z,10.60
2018-09-15T20:52:56.075Z,10.60
2018-09-15T20:55:24.585Z,10.50
2018-09-15T20:57:53.196Z,10.40
2018-09-15T21:00:21.757Z,10.40
2018-09-15T21:02:50.260Z,10.40
2018-09-15T21:05:18.837Z,10.30
2018-09-15T21:07:47.388Z,10.30
2018-09-15T21:10:15.972Z,10.30
2018-09-15T21:12:44.513Z,10.30
2018-09-15T21:15:13.129Z,10.30
2018-09-15T21:17:41.743Z,10.30
2018-09-15T21:20:10.324Z,10.30
2018-09-15T21:22:38.850Z,10.30
2018-09-15T21:25:07.442Z,10.30
2018-09-15T21:27:35.998Z,10.30
2018-09-15T21:30:04.741Z,10.30
2018-09-15T21:32:33.288Z,10.20
2018-09-15T21:35:01.936Z,10.20
2018-09-15T21:37:30.493Z,10.20
2018-09-15T21:39:59.026Z,10.20
2018-09-15T21:42:28.420Z,10.20
2018-09-15T21:44:56.958Z,10.20
2018-09-15T21:47:25.521Z,10.20
2018-09-15T21:49:54.065Z,10.10
2018-09-15T21:52:22.585Z,10.00
2018-09-15T21:54:51.134Z,10.00
2018-09-15T21:57:19.628Z,10.00
2018-09-15T21:59:48.195Z,9.90
2018-09-15T22:02:16.733Z,9.90
2018-09-15T22:04:45.313Z,9.90
2018-09-15T22:07:13.854Z,9.80
2018-09-15T22:09:42.383Z,9.90
2018-09-15T22:12:10.929Z,9.90
2018-09-15T22:14:39.490Z,9.90
2018-09-15T22:17:07.998Z,9.90
2018-09-15T22:19:36.553Z,9.80
2018-09-15T22:22:05.168Z,9.70
2018-09-15T22:24:33.696Z,9.80
2018-09-15T22:27:02.201Z,9.70
2018-09-15T22:29:30.786Z,9.70
2018-09-15T22:31:59.319Z,9.70
2018-09-15T22:34:27.877Z,9.70
2018-09-15T22:36:56.448Z,9.70
2018-09-15T22:39:24.971Z,9.70
2018-09-15T22:41:53.559Z,9.80
2018-09-15T22:44:22.060Z,9.80
2018-09-15T22:46:50.617Z,9.80
2018-09-15T22:49:19.129Z,9.80
2018-09-15T22:51:47.665Z,9.90
2018-09-15T22:54:16.195Z,10.00
2018-09-15T22:56:44.744Z,10.00
2018-09-15T22:59:13.262Z,10.10
2018-09-15T23:01:41.943Z,10.10
2018-09-15T23:04:12.340Z,10.10
2018-09-15T23:06:40.880Z,10.10
2018-09-15T23:09:10.585Z,10.00
2018-09-15T23:11:39.130Z,9.90
2018-09-15T23:14:07.744Z,9.90
2018-09-15T23:16:36.324Z,9.80
2018-09-15T23:19:04.931Z,9.70
2018-09-15T23:21:33.569Z,9.60
2018-09-15T23:24:02.112Z,9.60
2018-09-15T23:26:30.682Z,9.50
2018-09-15T23:28:59.195Z,9.50
2018-09-15T23:31:27.764Z,9.50
2018-09-15T23:33:56.281Z,9.40
2018-09-15T23:36:24.816Z,9.40
2018-09-15T23:38:53.396Z,9.50
2018-09-15T23:41:21.934Z,9.50
2018-09-15T23:43:50.503Z,9.50
2018-09-15T23:46:19.046Z,9.50
2018-09-15T23:48:47.624Z,9.50
2018-09-15T23:51:16.123Z,9.50
2018-09-15T23:53:44.676Z,9.40
2018-09-15T23:56:13.232Z,9.40
2018-09-15T23:58:41.792Z,9.40
